Big Bear Station Historical Data
Daily Summary for November 2, 2019 Units:  Both    English   Metric
Next Day »
Daily Weekly Monthly Yearly Custom
  High: Low: Average:
Temperature: 64.4 °F /  18 °C 29.5 °F /  -1.4 °C 42.8 °F /  6 °C
Dew Point: 27.4 °F /  -2.6 °C 10.2 °F /  -12.1 °C 17.5 °F /  -8.1 °C
Humidity: 69% 15% 41%
Wind Speed: 5.8mph /  9.3km/h - 0.6mph /  1km/h
Wind Gust: -999mph /  -1607.7km/h - -
Wind- - WSW
Pressure: 23.67 in /  801.5 hPa 23.58 in /  798.4 hPa -
Precipitation: 0 in /  0 mm    
Historical Graphs
 
 
Tabular Data for November 2, 2019
Time Temperature Dew Point Pressure Wind Wind Speed Wind Gust Humidity Rainfall Rate (Hourly)
00:02 30.6 °F /  -0.8 °C 10.2 °F /  -12.1 °C 23.66in /  801.1hPa Calm   -999mph /  -1607.7km/h 42% 0.00in /  0mm
00:17 30.7 °F /  -0.7 °C 13.8 °F /  -10.1 °C 23.67in /  801.5hPa Calm   -999mph /  -1607.7km/h 49% 0.00in /  0mm
00:32 30.7 °F /  -0.7 °C 15.1 °F /  -9.4 °C 23.66in /  801.1hPa Calm   -999mph /  -1607.7km/h 52% 0.00in /  0mm
00:47 30.7 °F /  -0.7 °C 14.7 °F /  -9.6 °C 23.66in /  801.1hPa Calm   -999mph /  -1607.7km/h 51% 0.00in /  0mm
01:03 30.4 °F /  -0.9 °C 15.7 °F /  -9.1 °C 23.66in /  801.1hPa Calm   -999mph /  -1607.7km/h 54% 0.00in /  0mm
01:18 30.2 °F /  -1 °C 14.7 °F /  -9.6 °C 23.66in /  801.1hPa Calm   -999mph /  -1607.7km/h 52% 0.00in /  0mm
01:33 30 °F /  -1.1 °C 12.7 °F /  -10.7 °C 23.66in /  801.1hPa SSE 2.7mph /  4.3km/h -999mph /  -1607.7km/h 48% 0.00in /  0mm
01:48 30.2 °F /  -1 °C 12.4 °F /  -10.9 °C 23.66in /  801.1hPa South 2.2mph /  3.5km/h -999mph /  -1607.7km/h 47% 0.00in /  0mm
02:03 30.4 °F /  -0.9 °C 17.4 °F /  -8.1 °C 23.66in /  801.1hPa Calm   -999mph /  -1607.7km/h 58% 0.00in /  0mm
02:19 30 °F /  -1.1 °C 18.9 °F /  -7.3 °C 23.66in /  801.1hPa Calm   -999mph /  -1607.7km/h 63% 0.00in /  0mm
02:34 30.6 °F /  -0.8 °C 18.7 °F /  -7.4 °C 23.66in /  801.1hPa Calm   -999mph /  -1607.7km/h 61% 0.00in /  0mm
02:49 30 °F /  -1.1 °C 17.8 °F /  -7.9 °C 23.66in /  801.1hPa Calm   -999mph /  -1607.7km/h 60% 0.00in /  0mm
03:04 30 °F /  -1.1 °C 18.9 °F /  -7.3 °C 23.66in /  801.1hPa Calm   -999mph /  -1607.7km/h 63% 0.00in /  0mm
03:19 30 °F /  -1.1 °C 19.7 °F /  -6.8 °C 23.66in /  801.1hPa Calm   -999mph /  -1607.7km/h 65% 0.00in /  0mm
03:35 29.5 °F /  -1.4 °C 18.8 °F /  -7.3 °C 23.66in /  801.1hPa Calm   -999mph /  -1607.7km/h 64% 0.00in /  0mm
03:50 29.5 °F /  -1.4 °C 18.1 °F /  -7.7 °C 23.65in /  800.8hPa Calm   -999mph /  -1607.7km/h 62% 0.00in /  0mm
04:05 29.8 °F /  -1.2 °C 18.7 °F /  -7.4 °C 23.65in /  800.8hPa Calm   -999mph /  -1607.7km/h 63% 0.00in /  0mm
04:20 29.7 °F /  -1.3 °C 18.6 °F /  -7.4 °C 23.65in /  800.8hPa Calm   -999mph /  -1607.7km/h 63% 0.00in /  0mm
04:35 29.8 °F /  -1.2 °C 19.5 °F /  -6.9 °C 23.65in /  800.8hPa Calm   -999mph /  -1607.7km/h 65% 0.00in /  0mm
04:51 29.7 °F /  -1.3 °C 19.7 °F /  -6.8 °C 23.65in /  800.8hPa Calm   -999mph /  -1607.7km/h 66% 0.00in /  0mm
05:06 30 °F /  -1.1 °C 19.7 °F /  -6.8 °C 23.65in /  800.8hPa Calm   -999mph /  -1607.7km/h 65% 0.00in /  0mm
05:21 29.8 °F /  -1.2 °C 19.5 °F /  -6.9 °C 23.65in /  800.8hPa South 2.7mph /  4.3km/h -999mph /  -1607.7km/h 65% 0.00in /  0mm
05:36 29.8 °F /  -1.2 °C 20.5 °F /  -6.4 °C 23.65in /  800.8hPa Calm   -999mph /  -1607.7km/h 68% 0.00in /  0mm
05:52 29.7 °F /  -1.3 °C 20.8 °F /  -6.2 °C 23.65in /  800.8hPa Calm   -999mph /  -1607.7km/h 69% 0.00in /  0mm
06:07 29.8 °F /  -1.2 °C 20.9 °F /  -6.2 °C 23.65in /  800.8hPa Calm   -999mph /  -1607.7km/h 69% 0.00in /  0mm
06:22 30.6 °F /  -0.8 °C 20.6 °F /  -6.3 °C 23.65in /  800.8hPa Calm   -999mph /  -1607.7km/h 66% 0.00in /  0mm
06:37 29.8 °F /  -1.2 °C 19.5 °F /  -6.9 °C 23.65in /  800.8hPa Calm   -999mph /  -1607.7km/h 65% 0.00in /  0mm
06:52 29.8 °F /  -1.2 °C 19.5 °F /  -6.9 °C 23.65in /  800.8hPa Calm   -999mph /  -1607.7km/h 65% 0.00in /  0mm
07:08 30.4 °F /  -0.9 °C 20.4 °F /  -6.4 °C 23.66in /  801.1hPa Calm   -999mph /  -1607.7km/h 66% 0.00in /  0mm
07:23 30.2 °F /  -1 °C 20.9 °F /  -6.2 °C 23.66in /  801.1hPa Calm   -999mph /  -1607.7km/h 68% 0.00in /  0mm
07:38 30.4 °F /  -0.9 °C 21.1 °F /  -6.1 °C 23.66in /  801.1hPa Calm   -999mph /  -1607.7km/h 68% 0.00in /  0mm
07:53 30.7 °F /  -0.7 °C 21.7 °F /  -5.7 °C 23.66in /  801.1hPa Calm   -999mph /  -1607.7km/h 69% 0.00in /  0mm
08:08 30.9 °F /  -0.6 °C 21.9 °F /  -5.6 °C 23.66in /  801.1hPa Calm   -999mph /  -1607.7km/h 69% 0.00in /  0mm
08:24 32.4 °F /  0.2 °C 22.7 °F /  -5.2 °C 23.66in /  801.1hPa Calm   -999mph /  -1607.7km/h 67% 0.00in /  0mm
08:39 32.9 °F /  0.5 °C 22.4 °F /  -5.3 °C 23.67in /  801.5hPa Calm   -999mph /  -1607.7km/h 65% 0.00in /  0mm
08:54 33.8 °F /  1 °C 22.5 °F /  -5.3 °C 23.67in /  801.5hPa Calm   -999mph /  -1607.7km/h 63% 0.00in /  0mm
09:09 35.2 °F /  1.8 °C 22.3 °F /  -5.4 °C 23.67in /  801.5hPa Calm   -999mph /  -1607.7km/h 59% 0.00in /  0mm
09:24 36.9 °F /  2.7 °C 22.7 °F /  -5.2 °C 23.67in /  801.5hPa Calm   -999mph /  -1607.7km/h 56% 0.00in /  0mm
09:40 39.2 °F /  4 °C 19.1 °F /  -7.2 °C 23.67in /  801.5hPa Calm   -999mph /  -1607.7km/h 44% 0.00in /  0mm
09:55 42.4 °F /  5.8 °C 20.9 °F /  -6.2 °C 23.67in /  801.5hPa Calm   -999mph /  -1607.7km/h 42% 0.00in /  0mm
10:10 42.4 °F /  5.8 °C 23.1 °F /  -4.9 °C 23.66in /  801.1hPa Calm   -999mph /  -1607.7km/h 46% 0.00in /  0mm
10:25 45.5 °F /  7.5 °C 26.4 °F /  -3.1 °C 23.66in /  801.1hPa Calm   -999mph /  -1607.7km/h 47% 0.00in /  0mm
10:40 50.2 °F /  10.1 °C 27.4 °F /  -2.6 °C 23.66in /  801.1hPa Calm   -999mph /  -1607.7km/h 41% 0.00in /  0mm
10:56 53.2 °F /  11.8 °C 15.3 °F /  -9.3 °C 23.66in /  801.1hPa Calm   -999mph /  -1607.7km/h 22% 0.00in /  0mm
11:11 55.8 °F /  13.2 °C 14.1 °F /  -9.9 °C 23.65in /  800.8hPa Calm   -999mph /  -1607.7km/h 19% 0.00in /  0mm
11:26 58.8 °F /  14.9 °C 15.3 °F /  -9.3 °C 23.65in /  800.8hPa Calm   -999mph /  -1607.7km/h 18% 0.00in /  0mm
11:42 60.1 °F /  15.6 °C 17.7 °F /  -7.9 °C 23.64in /  800.5hPa NW 2.7mph /  4.3km/h -999mph /  -1607.7km/h 19% 0.00in /  0mm
11:57 61.2 °F /  16.2 °C 18.6 °F /  -7.4 °C 23.63in /  800.1hPa NNW 1.1mph /  1.8km/h -999mph /  -1607.7km/h 19% 0.00in /  0mm
12:12 62.6 °F /  17 °C 19.7 °F /  -6.8 °C 23.63in /  800.1hPa Calm   -999mph /  -1607.7km/h 19% 0.00in /  0mm
12:27 64.4 °F /  18 °C 22.4 °F /  -5.3 °C 23.62in /  799.8hPa NW 2.7mph /  4.3km/h -999mph /  -1607.7km/h 20% 0.00in /  0mm
12:42 64.4 °F /  18 °C 19.9 °F /  -6.7 °C 23.61in /  799.4hPa WSW 2.7mph /  4.3km/h -999mph /  -1607.7km/h 18% 0.00in /  0mm
12:58 63 °F /  17.2 °C 20.1 °F /  -6.6 °C 23.61in /  799.4hPa NW 3.2mph /  5.1km/h -999mph /  -1607.7km/h 19% 0.00in /  0mm
13:13 63.9 °F /  17.7 °C 18.2 °F /  -7.7 °C 23.61in /  799.4hPa NW 4.2mph /  6.8km/h -999mph /  -1607.7km/h 17% 0.00in /  0mm
13:28 62.2 °F /  16.8 °C 16.8 °F /  -8.4 °C 23.60in /  799.1hPa WNW 3.2mph /  5.1km/h -999mph /  -1607.7km/h 17% 0.00in /  0mm
13:43 61 °F /  16.1 °C 15.8 °F /  -9 °C 23.60in /  799.1hPa West 2.7mph /  4.3km/h -999mph /  -1607.7km/h 17% 0.00in /  0mm
13:58 59.9 °F /  15.5 °C 12.1 °F /  -11.1 °C 23.60in /  799.1hPa East 2.2mph /  3.5km/h -999mph /  -1607.7km/h 15% 0.00in /  0mm
14:14 60.4 °F /  15.8 °C 20.3 °F /  -6.5 °C 23.60in /  799.1hPa WNW 2.7mph /  4.3km/h -999mph /  -1607.7km/h 21% 0.00in /  0mm
14:29 60.3 °F /  15.7 °C 15.3 °F /  -9.3 °C 23.59in /  798.8hPa WNW 4.7mph /  7.6km/h -999mph /  -1607.7km/h 17% 0.00in /  0mm
14:45 62.1 °F /  16.7 °C 16.7 °F /  -8.5 °C 23.59in /  798.8hPa NW 2.7mph /  4.3km/h -999mph /  -1607.7km/h 17% 0.00in /  0mm
15:00 62.2 °F /  16.8 °C 18.1 °F /  -7.7 °C 23.59in /  798.8hPa NW 1.7mph /  2.7km/h -999mph /  -1607.7km/h 18% 0.00in /  0mm
15:15 62.2 °F /  16.8 °C 19.4 °F /  -7 °C 23.59in /  798.8hPa Calm   -999mph /  -1607.7km/h 19% 0.00in /  0mm
15:31 60.8 °F /  16 °C 14.3 °F /  -9.8 °C 23.59in /  798.8hPa Calm   -999mph /  -1607.7km/h 16% 0.00in /  0mm
15:46 60.4 °F /  15.8 °C 12.5 °F /  -10.8 °C 23.59in /  798.8hPa SSE 5.8mph /  9.3km/h -999mph /  -1607.7km/h 15% 0.00in /  0mm
16:01 60.4 °F /  15.8 °C 14 °F /  -10 °C 23.59in /  798.8hPa ENE 1.1mph /  1.8km/h -999mph /  -1607.7km/h 16% 0.00in /  0mm
16:17 60.1 °F /  15.6 °C 15.1 °F /  -9.4 °C 23.59in /  798.8hPa Calm   -999mph /  -1607.7km/h 17% 0.00in /  0mm
16:32 59.7 °F /  15.4 °C 16.1 °F /  -8.8 °C 23.59in /  798.8hPa NW 2.2mph /  3.5km/h -999mph /  -1607.7km/h 18% 0.00in /  0mm
16:47 59.2 °F /  15.1 °C 18.1 °F /  -7.7 °C 23.59in /  798.8hPa Calm   -999mph /  -1607.7km/h 20% 0.00in /  0mm
17:02 57.7 °F /  14.3 °C 18 °F /  -7.8 °C 23.59in /  798.8hPa Calm   -999mph /  -1607.7km/h 21% 0.00in /  0mm
17:17 56.3 °F /  13.5 °C 19.9 °F /  -6.7 °C 23.58in /  798.4hPa Calm   -999mph /  -1607.7km/h 24% 0.00in /  0mm
17:33 54.7 °F /  12.6 °C 13.2 °F /  -10.4 °C 23.58in /  798.4hPa Calm   -999mph /  -1607.7km/h 19% 0.00in /  0mm
17:48 53.1 °F /  11.7 °C 15.2 °F /  -9.3 °C 23.59in /  798.8hPa Calm   -999mph /  -1607.7km/h 22% 0.00in /  0mm
18:03 52 °F /  11.1 °C 14.3 °F /  -9.8 °C 23.58in /  798.4hPa Calm   -999mph /  -1607.7km/h 22% 0.00in /  0mm
18:18 50.7 °F /  10.4 °C 13.2 °F /  -10.4 °C 23.58in /  798.4hPa Calm   -999mph /  -1607.7km/h 22% 0.00in /  0mm
18:33 49.3 °F /  9.6 °C 13 °F /  -10.6 °C 23.58in /  798.4hPa Calm   -999mph /  -1607.7km/h 23% 0.00in /  0mm
18:49 47.8 °F /  8.8 °C 13.6 °F /  -10.2 °C 23.59in /  798.8hPa South 1.1mph /  1.8km/h -999mph /  -1607.7km/h 25% 0.00in /  0mm
19:04 46.6 °F /  8.1 °C 12.6 °F /  -10.8 °C 23.59in /  798.8hPa Calm   -999mph /  -1607.7km/h 25% 0.00in /  0mm
19:19 45.7 °F /  7.6 °C 13.6 °F /  -10.2 °C 23.59in /  798.8hPa Calm   -999mph /  -1607.7km/h 27% 0.00in /  0mm
19:34 45 °F /  7.2 °C 14.6 °F /  -9.7 °C 23.59in /  798.8hPa South 2.2mph /  3.5km/h -999mph /  -1607.7km/h 29% 0.00in /  0mm
19:50 43.9 °F /  6.6 °C 14.4 °F /  -9.8 °C 23.59in /  798.8hPa Calm   -999mph /  -1607.7km/h 30% 0.00in /  0mm
20:05 43 °F /  6.1 °C 15.1 °F /  -9.4 °C 23.59in /  798.8hPa Calm   -999mph /  -1607.7km/h 32% 0.00in /  0mm
20:20 42.6 °F /  5.9 °C 16.2 °F /  -8.8 °C 23.59in /  798.8hPa Calm   -999mph /  -1607.7km/h 34% 0.00in /  0mm
20:35 41.9 °F /  5.5 °C 15.5 °F /  -9.2 °C 23.59in /  798.8hPa Calm   -999mph /  -1607.7km/h 34% 0.00in /  0mm
20:50 41.2 °F /  5.1 °C 16.2 °F /  -8.8 °C 23.59in /  798.8hPa Calm   -999mph /  -1607.7km/h 36% 0.00in /  0mm
21:06 40.5 °F /  4.7 °C 12.9 °F /  -10.6 °C 23.59in /  798.8hPa Calm   -999mph /  -1607.7km/h 32% 0.00in /  0mm
21:21 39.7 °F /  4.3 °C 11.5 °F /  -11.4 °C 23.59in /  798.8hPa Calm   -999mph /  -1607.7km/h 31% 0.00in /  0mm
21:36 39.2 °F /  4 °C 11.8 °F /  -11.2 °C 23.59in /  798.8hPa Calm   -999mph /  -1607.7km/h 32% 0.00in /  0mm
21:51 38.7 °F /  3.7 °C 12 °F /  -11.1 °C 23.60in /  799.1hPa Calm   -999mph /  -1607.7km/h 33% 0.00in /  0mm
22:06 38.1 °F /  3.4 °C 14.7 °F /  -9.6 °C 23.60in /  799.1hPa Calm   -999mph /  -1607.7km/h 38% 0.00in /  0mm
22:22 38.1 °F /  3.4 °C 16.5 °F /  -8.6 °C 23.59in /  798.8hPa Calm   -999mph /  -1607.7km/h 41% 0.00in /  0mm
22:37 37.6 °F /  3.1 °C 16.6 °F /  -8.6 °C 23.59in /  798.8hPa Calm   -999mph /  -1607.7km/h 42% 0.00in /  0mm
22:52 37.2 °F /  2.9 °C 16.7 °F /  -8.5 °C 23.59in /  798.8hPa SSE 2.2mph /  3.5km/h -999mph /  -1607.7km/h 43% 0.00in /  0mm
23:07 37 °F /  2.8 °C 17.1 °F /  -8.3 °C 23.59in /  798.8hPa Calm   -999mph /  -1607.7km/h 44% 0.00in /  0mm
23:22 36.3 °F /  2.4 °C 17.5 °F /  -8.1 °C 23.59in /  798.8hPa Calm   -999mph /  -1607.7km/h 46% 0.00in /  0mm
23:38 36.1 °F /  2.3 °C 19.7 °F /  -6.8 °C 23.59in /  798.8hPa Calm   -999mph /  -1607.7km/h 51% 0.00in /  0mm
23:53 36 °F /  2.2 °C 20.5 °F /  -6.4 °C 23.59in /  798.8hPa Calm   -999mph /  -1607.7km/h 53% 0.00in /  0mm
Big Bear CA Weather